Time;durP1;ratioP1;P1;durP2;ratioP2;P2;SDS_P1;SDS_P2;PMS_P1;PMS_P2;Temp;Humidity;BMP_temperature;BMP_pressure;BME280_temperature;BME280_humidity;BME280_pressure;Samples;Min_cycle;Max_cycle;Signal;HPM_P1;HPM_P2
2023/09/19 00:01:32;;;;;;;11.90;3.00;;;16.60;21.50;;;;;;5069457;28;20490;-81
2023/09/19 00:03:58;;;;;;;8.03;2.40;;;16.50;41.70;;;;;;5071587;28;20436;-79
2023/09/19 00:06:25;;;;;;;11.53;2.87;;;16.60;50.10;;;;;;5071763;28;20435;-82
2023/09/19 00:08:51;;;;;;;8.40;2.83;;;16.50;75.00;;;;;;5060477;28;20498;-81
2023/09/19 00:11:17;;;;;;;7.07;2.40;;;16.50;99.90;;;;;;5071672;28;20546;-82
2023/09/19 00:13:43;;;;;;;6.33;2.83;;;16.50;44.30;;;;;;5071751;28;20450;-83
2023/09/19 00:16:10;;;;;;;8.30;2.67;;;16.50;46.30;;;;;;5072145;28;20185;-83
2023/09/19 00:18:37;;;;;;;11.90;3.33;;;16.50;95.00;;;;;;5072562;28;20439;-81
2023/09/19 00:21:04;;;;;;;11.47;2.77;;;16.50;14.60;;;;;;5074975;28;20491;-83
2023/09/19 00:23:31;;;;;;;12.00;3.10;;;16.50;1.00;;;;;;5076937;28;20435;-81
2023/09/19 00:26:00;;;;;;;7.30;2.60;;;16.50;1.00;;;;;;5068634;28;20471;-82
2023/09/19 00:28:26;;;;;;;8.17;2.67;;;16.50;1.00;;;;;;5075445;28;20446;-82
2023/09/19 00:30:54;;;;;;;6.17;2.40;;;16.50;1.00;;;;;;5074999;28;20533;-82
2023/09/19 00:33:22;;;;;;;13.10;3.40;;;16.50;1.00;;;;;;5059308;28;20432;-82
2023/09/19 00:35:49;;;;;;;10.63;2.60;;;16.60;1.00;;;;;;5072220;28;20530;-79
2023/09/19 00:38:16;;;;;;;7.37;2.13;;;16.60;1.00;;;;;;5075024;28;20945;-82
2023/09/19 00:40:46;;;;;;;6.97;2.93;;;16.60;1.00;;;;;;5074888;28;20439;-82
2023/09/19 00:43:11;;;;;;;14.83;2.70;;;16.60;1.00;;;;;;5073590;28;20439;-82
2023/09/19 00:45:42;;;;;;;10.43;2.63;;;16.60;1.00;;;;;;5074415;28;20462;-84
2023/09/19 00:48:09;;;;;;;12.90;3.00;;;16.60;1.00;;;;;;5074750;28;20199;-81
2023/09/19 00:50:35;;;;;;;7.43;3.00;;;16.50;1.00;;;;;;5074101;28;20428;-83
2023/09/19 00:53:07;;;;;;;11.60;2.80;;;16.50;1.00;;;;;;5059942;28;20428;-82
2023/09/19 00:55:34;;;;;;;9.40;2.37;;;16.50;1.00;;;;;;5072625;28;20499;-84
2023/09/19 00:58:01;;;;;;;12.93;2.30;;;16.50;1.00;;;;;;5072506;28;20431;-80
2023/09/19 01:00:26;;;;;;;6.97;2.97;;;16.50;1.00;;;;;;5074925;28;20529;-81
2023/09/19 01:02:52;;;;;;;9.63;3.30;;;16.50;1.00;;;;;;5073072;28;20419;-82
2023/09/19 01:05:18;;;;;;;8.90;2.73;;;16.50;1.00;;;;;;5070876;28;20463;-83
2023/09/19 01:07:53;;;;;;;10.10;2.50;;;16.40;1.00;;;;;;5071459;28;20183;-82
2023/09/19 01:10:22;;;;;;;12.60;2.67;;;16.40;45.70;;;;;;5053957;28;20449;-82
2023/09/19 01:13:16;;;;;;;9.73;2.90;;;16.40;99.90;;;;;;5071818;28;20497;-82
2023/09/19 01:15:59;;;;;;;11.20;2.57;;;16.30;99.90;;;;;;5067975;28;20435;-82
2023/09/19 01:18:55;;;;;;;12.83;3.47;;;16.30;99.90;;;;;;5055946;28;20446;-84
2023/09/19 01:21:35;;;;;;;12.83;3.20;;;16.30;99.90;;;;;;5065640;28;20796;-81
2023/09/19 01:24:28;;;;;;;7.60;2.67;;;16.30;90.70;;;;;;5071510;28;20469;-82
2023/09/19 01:27:32;;;;;;;10.93;2.63;;;16.30;90.30;;;;;;5071345;28;20443;-83
2023/09/19 01:30:24;;;;;;;7.70;2.37;;;16.30;1.00;;;;;;5072363;28;20439;-81
2023/09/19 01:32:53;;;;;;;9.93;3.07;;;16.20;1.00;;;;;;5070443;28;20467;-82
2023/09/19 01:35:19;;;;;;;10.50;2.37;;;16.20;1.00;;;;;;5064708;28;20880;-83
2023/09/19 01:37:44;;;;;;;12.47;2.60;;;16.20;1.00;;;;;;5072251;28;20542;-82
2023/09/19 01:40:20;;;;;;;10.53;2.60;;;16.20;1.00;;;;;;5059768;28;20438;-82
2023/09/19 01:43:05;;;;;;;9.53;2.53;;;16.20;1.00;;;;;;5071499;28;20216;-82
2023/09/19 01:46:02;;;;;;;13.40;2.63;;;16.20;1.00;;;;;;5063354;28;20471;-85
2023/09/19 01:48:38;;;;;;;9.23;3.17;;;16.20;1.00;;;;;;5071849;28;20431;-82
2023/09/19 01:51:10;;;;;;;11.03;2.83;;;16.20;1.00;;;;;;5072704;28;20459;-83
2023/09/19 01:54:02;;;;;;;9.53;2.77;;;16.20;1.00;;;;;;5058690;28;20435;-83
2023/09/19 01:56:36;;;;;;;7.60;2.30;;;16.20;1.00;;;;;;5062991;28;20489;-82
2023/09/19 01:59:10;;;;;;;8.77;2.80;;;16.20;1.00;;;;;;5070446;28;20427;-83
2023/09/19 02:01:37;;;;;;;10.00;3.00;;;16.20;1.00;;;;;;5062318;28;20455;-82
2023/09/19 02:04:07;;;;;;;9.00;2.70;;;16.20;1.00;;;;;;5070758;28;20427;-80
2023/09/19 02:06:33;;;;;;;10.87;2.30;;;16.20;99.90;;;;;;5057400;28;20470;-82
2023/09/19 02:08:59;;;;;;;11.60;2.57;;;16.10;99.90;;;;;;5075987;28;20430;-82
2023/09/19 02:11:25;;;;;;;8.13;2.87;;;16.10;99.90;;;;;;5074853;28;20451;-83
2023/09/19 02:13:54;;;;;;;9.70;2.63;;;16.10;99.90;;;;;;5059855;28;20189;-83
2023/09/19 02:16:20;;;;;;;7.60;3.00;;;16.10;22.40;;;;;;5069661;28;20208;-81
2023/09/19 02:18:49;;;;;;;7.10;2.17;;;16.00;99.90;;;;;;5060705;28;20446;-82
2023/09/19 02:21:15;;;;;;;8.47;1.93;;;16.00;99.90;;;;;;5056974;28;20455;-84
2023/09/19 02:23:41;;;;;;;10.57;2.77;;;16.00;1.00;;;;;;5067028;28;20431;-83
2023/09/19 02:26:11;;;;;;;13.73;2.97;;;16.00;1.00;;;;;;5075618;28;20474;-82
2023/09/19 02:28:37;;;;;;;8.90;2.63;;;15.90;1.00;;;;;;5057578;28;20188;-82
2023/09/19 02:31:05;;;;;;;11.90;2.40;;;15.90;1.00;;;;;;5064803;28;20458;-82
2023/09/19 02:33:32;;;;;;;8.20;2.40;;;15.90;1.00;;;;;;5066088;28;20200;-82
2023/09/19 02:35:58;;;;;;;9.00;2.20;;;15.90;1.00;;;;;;5074394;28;20439;-82
2023/09/19 02:38:27;;;;;;;17.33;2.60;;;15.80;1.00;;;;;;5055475;28;20431;-82
2023/09/19 02:40:52;;;;;;;5.83;2.03;;;15.80;1.00;;;;;;5071894;28;20489;-82
2023/09/19 02:43:19;;;;;;;13.23;3.70;;;15.80;1.00;;;;;;5067729;28;20940;-82
2023/09/19 02:45:46;;;;;;;8.20;2.53;;;15.80;1.00;;;;;;5073001;28;20670;-82
2023/09/19 02:48:12;;;;;;;9.40;2.77;;;15.80;1.00;;;;;;5071803;28;20446;-82
2023/09/19 02:50:39;;;;;;;13.30;2.73;;;15.80;1.00;;;;;;5072663;28;20443;-82
2023/09/19 02:53:04;;;;;;;12.23;3.37;;;15.70;1.00;;;;;;5067708;28;20189;-82
2023/09/19 02:55:31;;;;;;;9.57;2.73;;;15.70;1.00;;;;;;5073825;28;20461;-82
2023/09/19 02:58:01;;;;;;;10.83;3.00;;;15.70;1.00;;;;;;5071579;28;20185;-83
2023/09/19 03:00:27;;;;;;;7.20;2.87;;;15.70;1.00;;;;;;5074043;28;20511;-82
2023/09/19 03:02:56;;;;;;;10.20;2.23;;;15.70;99.90;;;;;;5073681;28;20474;-80
2023/09/19 03:05:26;;;;;;;7.33;2.70;;;15.70;99.90;;;;;;5071646;28;20544;-81
2023/09/19 03:07:55;;;;;;;15.23;2.87;;;15.70;99.90;;;;;;5074241;28;20460;-81
2023/09/19 03:10:21;;;;;;;10.33;2.90;;;15.70;99.90;;;;;;5072166;28;20423;-82
2023/09/19 03:12:48;;;;;;;11.87;2.83;;;15.60;99.90;;;;;;5072967;28;20854;-83
2023/09/19 03:15:15;;;;;;;10.47;2.50;;;15.60;1.00;;;;;;5070391;28;20432;-82
2023/09/19 03:17:43;;;;;;;22.10;3.27;;;15.60;1.00;;;;;;5059677;28;20818;-82
2023/09/19 03:20:12;;;;;;;12.83;2.43;;;15.60;1.00;;;;;;5072107;28;20809;-82
2023/09/19 03:22:38;;;;;;;12.93;3.93;;;15.60;99.90;;;;;;5073009;28;20463;-80
2023/09/19 03:25:07;;;;;;;10.20;2.30;;;15.60;90.30;;;;;;5073150;28;20493;-83
2023/09/19 03:27:33;;;;;;;7.93;3.40;;;15.60;99.90;;;;;;5075167;28;20435;-82
2023/09/19 03:29:59;;;;;;;7.87;2.30;;;15.50;99.90;;;;;;5059579;28;20796;-83
2023/09/19 03:32:46;;;;;;;11.50;2.33;;;15.50;99.90;;;;;;5071851;28;20455;-82
2023/09/19 03:35:13;;;;;;;7.07;2.97;;;15.50;99.90;;;;;;5072396;28;20696;-82
2023/09/19 03:37:40;;;;;;;12.23;2.60;;;15.50;99.90;;;;;;5071247;28;20442;-81
2023/09/19 03:40:07;;;;;;;9.90;3.23;;;15.50;99.90;;;;;;5075426;28;20438;-80
2023/09/19 03:42:32;;;;;;;11.03;2.80;;;15.50;99.90;;;;;;5074750;28;20996;-84
2023/09/19 03:44:59;;;;;;;15.23;3.20;;;15.50;99.90;;;;;;5080739;28;20597;-82
2023/09/19 03:47:25;;;;;;;10.20;3.10;;;15.50;1.00;;;;;;5058653;28;20189;-82
2023/09/19 03:49:52;;;;;;;11.30;3.10;;;15.50;1.00;;;;;;5072414;28;20440;-82
2023/09/19 03:52:17;;;;;;;12.00;2.73;;;15.40;1.00;;;;;;5063892;28;20209;-84
2023/09/19 03:54:43;;;;;;;16.40;3.60;;;15.50;1.00;;;;;;5074117;28;20447;-82
2023/09/19 03:57:08;;;;;;;11.13;2.93;;;15.50;1.00;;;;;;5076144;28;21374;-83
2023/09/19 03:59:35;;;;;;;18.77;3.10;;;15.40;1.00;;;;;;5075022;28;20185;-82
2023/09/19 04:02:02;;;;;;;21.83;3.10;;;15.50;99.90;;;;;;5067519;28;20211;-82
2023/09/19 04:04:29;;;;;;;14.10;2.73;;;15.50;99.90;;;;;;5072259;28;20209;-82
2023/09/19 04:06:54;;;;;;;9.03;2.93;;;15.50;99.90;;;;;;5073943;28;20435;-82
2023/09/19 04:09:20;;;;;;;11.80;3.20;;;15.50;85.90;;;;;;5059133;28;20477;-83
2023/09/19 04:11:45;;;;;;;10.77;2.70;;;15.40;99.90;;;;;;5064880;28;20216;-82
2023/09/19 04:14:11;;;;;;;10.10;3.30;;;15.40;1.00;;;;;;5073653;28;20188;-82
2023/09/19 04:16:36;;;;;;;10.60;3.10;;;15.40;1.00;;;;;;5059813;28;20677;-84
2023/09/19 04:19:03;;;;;;;12.10;2.70;;;15.40;1.00;;;;;;5053633;28;20265;-82
2023/09/19 04:21:29;;;;;;;11.47;2.90;;;15.40;1.00;;;;;;5055800;28;20638;-83
2023/09/19 04:23:54;;;;;;;11.13;2.60;;;15.30;1.00;;;;;;5067056;28;20432;-82
2023/09/19 04:26:21;;;;;;;13.50;3.07;;;15.30;1.00;;;;;;5071966;28;20204;-82
2023/09/19 04:28:47;;;;;;;10.03;2.40;;;15.30;1.00;;;;;;5055887;28;20180;-80
2023/09/19 04:31:13;;;;;;;8.00;2.90;;;15.30;99.90;;;;;;5054709;28;20869;-81
2023/09/19 04:33:39;;;;;;;11.93;3.10;;;15.30;99.90;;;;;;5072998;28;20428;-82
2023/09/19 04:36:07;;;;;;;14.53;3.53;;;15.30;99.90;;;;;;5055878;28;20845;-82
2023/09/19 04:38:33;;;;;;;15.03;2.63;;;15.30;99.90;;;;;;5066180;28;20177;-81
2023/09/19 04:41:01;;;;;;;14.43;3.53;;;15.30;1.00;;;;;;5075027;28;20555;-81
2023/09/19 04:43:29;;;;;;;13.07;2.37;;;15.30;1.00;;;;;;5073435;28;20484;-80
2023/09/19 04:45:55;;;;;;;8.77;2.47;;;15.20;99.90;;;;;;5073741;28;20469;-82
2023/09/19 04:48:23;;;;;;;7.20;2.17;;;15.40;99.90;;;;;;5054658;28;20530;-82
2023/09/19 04:50:49;;;;;;;9.20;2.63;;;15.20;37.30;;;;;;5073968;28;20932;-84
2023/09/19 04:53:15;;;;;;;9.03;2.47;;;15.20;17.80;;;;;;5073573;28;20422;-83
2023/09/19 04:55:40;;;;;;;10.70;2.20;;;15.20;1.00;;;;;;5074446;28;20187;-82
2023/09/19 04:58:06;;;;;;;6.83;2.27;;;15.20;99.90;;;;;;5072175;28;20559;-83
2023/09/19 05:00:35;;;;;;;14.00;2.30;;;15.30;99.90;;;;;;5075970;28;20192;-83
2023/09/19 05:03:00;;;;;;;10.70;3.37;;;15.40;99.90;;;;;;5056805;28;20187;-81
2023/09/19 05:05:26;;;;;;;10.50;3.20;;;15.40;99.90;;;;;;5074827;28;20566;-82
2023/09/19 05:07:54;;;;;;;6.67;2.30;;;15.40;99.90;;;;;;5057684;28;20177;-83
2023/09/19 05:10:20;;;;;;;12.47;2.40;;;15.40;1.00;;;;;;5073307;28;20434;-83
2023/09/19 05:12:47;;;;;;;8.03;2.63;;;15.40;1.00;;;;;;5072705;28;20840;-83
2023/09/19 05:15:14;;;;;;;11.77;2.80;;;15.40;1.00;;;;;;5054557;28;20447;-82
2023/09/19 05:17:40;;;;;;;11.97;2.60;;;15.40;1.00;;;;;;5073467;28;20911;-82
2023/09/19 05:20:24;;;;;;;9.90;3.00;;;15.40;99.90;;;;;;5074206;28;20425;-83
2023/09/19 05:23:00;;;;;;;9.90;2.57;;;15.50;99.90;;;;;;5072059;28;20215;-82
2023/09/19 05:25:27;;;;;;;10.57;2.93;;;15.50;1.00;;;;;;5072561;28;20479;-82
2023/09/19 05:27:54;;;;;;;7.53;2.80;;;15.50;99.90;;;;;;5072497;28;20459;-82
2023/09/19 05:30:20;;;;;;;13.83;2.90;;;15.60;1.00;;;;;;5069014;28;23141;-82
2023/09/19 05:32:45;;;;;;;10.20;2.63;;;15.60;99.90;;;;;;5072210;28;20258;-81
2023/09/19 05:35:13;;;;;;;10.50;2.60;;;15.70;99.90;;;;;;5067533;28;20439;-81
2023/09/19 05:37:39;;;;;;;10.13;2.70;;;15.70;99.90;;;;;;5072452;28;20250;-82
2023/09/19 05:40:09;;;;;;;11.57;3.47;;;15.70;99.90;;;;;;5071125;28;20439;-82
2023/09/19 05:42:35;;;;;;;12.37;2.63;;;15.70;99.90;;;;;;5072916;28;20454;-84
2023/09/19 05:45:00;;;;;;;9.07;2.50;;;15.70;99.90;;;;;;5069802;28;20558;-81
2023/09/19 05:47:26;;;;;;;8.97;2.57;;;15.80;99.90;;;;;;5072806;28;20568;-82
2023/09/19 05:49:52;;;;;;;11.20;2.77;;;15.80;99.90;;;;;;5069861;28;20195;-82
2023/09/19 05:52:17;;;;;;;14.77;2.97;;;15.80;99.90;;;;;;5062253;28;20762;-82
2023/09/19 05:54:43;;;;;;;12.97;3.33;;;15.80;1.00;;;;;;5073003;28;20439;-81
2023/09/19 05:57:11;;;;;;;17.27;3.10;;;15.90;99.90;;;;;;5073854;28;20689;-81
2023/09/19 05:59:46;;;;;;;10.73;3.03;;;15.90;99.90;;;;;;5067216;28;20643;-79
2023/09/19 06:02:12;;;;;;;13.47;2.77;;;16.00;99.90;;;;;;5072675;28;20527;-82
2023/09/19 06:04:40;;;;;;;11.03;2.90;;;16.10;93.50;;;;;;5068379;28;20456;-81
2023/09/19 06:07:06;;;;;;;8.53;2.63;;;16.10;1.00;;;;;;5073540;28;20184;-81
2023/09/19 06:09:32;;;;;;;9.20;2.67;;;16.20;1.00;;;;;;5073408;28;20432;-80
2023/09/19 06:11:58;;;;;;;18.43;2.57;;;16.30;1.00;;;;;;5073178;28;20475;-81
2023/09/19 06:14:24;;;;;;;9.70;2.63;;;16.40;99.90;;;;;;5072363;28;20647;-81
2023/09/19 06:16:50;;;;;;;8.77;2.80;;;16.40;99.90;;;;;;5058296;28;20790;-82
2023/09/19 06:19:15;;;;;;;12.10;3.03;;;16.40;99.90;;;;;;5066927;28;20517;-82
2023/09/19 06:21:41;;;;;;;14.70;3.23;;;16.60;22.00;;;;;;5073150;28;20258;-82
2023/09/19 06:24:06;;;;;;;11.27;2.90;;;16.70;1.00;;;;;;5075136;28;20193;-83
2023/09/19 06:26:32;;;;;;;10.97;2.20;;;16.90;99.90;;;;;;5076775;28;20213;-80
2023/09/19 06:28:59;;;;;;;7.37;2.20;;;17.00;99.90;;;;;;5074934;28;20417;-82
2023/09/19 06:31:26;;;;;;;10.07;2.70;;;17.20;99.90;;;;;;5073457;28;20232;-82
2023/09/19 06:33:52;;;;;;;13.40;2.50;;;17.40;1.00;;;;;;5075854;28;20436;-82
2023/09/19 06:36:19;;;;;;;13.87;3.33;;;17.60;1.00;;;;;;5076325;28;20419;-81
2023/09/19 06:38:44;;;;;;;8.03;2.73;;;17.70;1.00;;;;;;5076242;28;20903;-82
2023/09/19 06:41:11;;;;;;;10.27;3.10;;;17.80;1.00;;;;;;5075984;28;20447;-82
2023/09/19 06:43:36;;;;;;;8.70;3.20;;;18.00;99.90;;;;;;5075082;28;20181;-82
2023/09/19 06:46:02;;;;;;;6.33;2.20;;;18.20;99.90;;;;;;5074008;28;20994;-81
2023/09/19 06:48:29;;;;;;;9.20;2.43;;;18.50;99.90;;;;;;5075044;28;20178;-82
2023/09/19 06:50:55;;;;;;;7.80;2.50;;;18.80;99.90;;;;;;5073197;28;20284;-84
2023/09/19 06:53:23;;;;;;;9.00;2.13;;;19.10;99.90;;;;;;5076440;28;20431;-84
2023/09/19 06:55:51;;;;;;;11.70;2.70;;;19.30;65.60;;;;;;5077620;28;20952;-82
2023/09/19 06:58:17;;;;;;;8.07;2.53;;;19.50;17.50;;;;;;5076050;28;20474;-83
2023/09/19 07:00:44;;;;;;;8.37;2.37;;;19.70;1.00;;;;;;5073215;28;20439;-84
2023/09/19 07:03:13;;;;;;;7.73;2.57;;;19.90;1.00;;;;;;5077256;28;20272;-83
2023/09/19 07:05:39;;;;;;;9.17;2.27;;;20.10;1.00;;;;;;5077821;28;20482;-83
2023/09/19 07:08:07;;;;;;;11.73;2.73;;;20.50;1.00;;;;;;5069192;28;20941;-83
2023/09/19 07:10:33;;;;;;;14.40;2.50;;;20.80;1.00;;;;;;5076273;28;20427;-83
2023/09/19 07:13:04;;;;;;;13.90;3.17;;;21.00;1.00;;;;;;5074143;28;20456;-83
2023/09/19 07:15:35;;;;;;;7.63;2.70;;;21.40;1.00;;;;;;5058404;28;20435;-83
2023/09/19 07:18:01;;;;;;;9.90;2.63;;;21.60;1.00;;;;;;5073721;28;20435;-83
2023/09/19 07:20:27;;;;;;;8.53;3.13;;;21.90;1.00;;;;;;5072253;28;20434;-82
2023/09/19 07:22:54;;;;;;;6.27;2.10;;;22.30;99.90;;;;;;5071608;28;20693;-83
2023/09/19 07:25:21;;;;;;;8.20;2.27;;;23.10;1.00;;;;;;5068430;28;20467;-81
2023/09/19 07:27:46;;;;;;;7.77;2.47;;;23.70;99.90;;;;;;5041138;28;20512;-82
2023/09/19 07:30:12;;;;;;;9.10;2.03;;;24.90;1.00;;;;;;5066078;28;20566;-81
2023/09/19 07:32:40;;;;;;;8.77;2.30;;;25.60;1.00;;;;;;5073549;28;20254;-81
2023/09/19 07:35:06;;;;;;;8.87;2.70;;;26.10;1.00;;;;;;5049511;28;20440;-82
2023/09/19 07:37:36;;;;;;;11.53;2.50;;;26.70;1.00;;;;;;5067148;28;20435;-83
2023/09/19 07:40:06;;;;;;;13.03;2.63;;;27.00;1.00;;;;;;5057114;28;20444;-83
2023/09/19 07:42:35;;;;;;;6.97;3.33;;;27.50;1.00;;;;;;5056421;28;20442;-83
2023/09/19 07:45:01;;;;;;;19.90;3.70;;;27.50;1.00;;;;;;5075039;28;20476;-83
2023/09/19 07:47:32;;;;;;;7.10;2.70;;;27.30;1.00;;;;;;5075905;28;20447;-82
2023/09/19 07:49:58;;;;;;;10.00;2.57;;;27.40;1.00;;;;;;5073368;28;20787;-82
2023/09/19 07:52:24;;;;;;;6.43;1.93;;;27.80;1.00;;;;;;5064340;28;20461;-82
2023/09/19 07:54:50;;;;;;;7.77;2.43;;;27.90;1.00;;;;;;5051847;28;20951;-83
2023/09/19 07:57:16;;;;;;;7.17;2.10;;;27.70;1.00;;;;;;5070909;28;20257;-83
2023/09/19 07:59:42;;;;;;;9.60;2.30;;;27.90;1.00;;;;;;5074078;28;20197;-81
2023/09/19 08:02:09;;;;;;;9.33;3.00;;;27.80;1.00;;;;;;5072955;28;20438;-80
2023/09/19 08:04:35;;;;;;;7.90;2.67;;;28.20;1.00;;;;;;5071839;28;20563;-83
2023/09/19 08:07:03;;;;;;;7.33;2.20;;;28.50;1.00;;;;;;5074302;28;20458;-81
2023/09/19 08:09:33;;;;;;;9.83;2.23;;;28.70;1.00;;;;;;5053156;28;20650;-82
2023/09/19 08:12:02;;;;;;;7.40;2.40;;;29.10;1.00;;;;;;5054394;28;20475;-85
2023/09/19 08:14:37;;;;;;;8.07;2.33;;;28.80;1.00;;;;;;5053565;28;20526;-82
2023/09/19 08:17:05;;;;;;;6.60;2.40;;;28.80;1.00;;;;;;5074576;28;20422;-82
2023/09/19 08:19:31;;;;;;;9.73;2.27;;;28.90;1.00;;;;;;5074042;28;20476;-83
2023/09/19 08:22:01;;;;;;;8.27;2.33;;;28.90;1.00;;;;;;5074513;28;20450;-81
2023/09/19 08:24:28;;;;;;;8.97;2.60;;;28.50;1.00;;;;;;5067539;28;20514;-83
2023/09/19 08:27:04;;;;;;;11.97;2.63;;;28.20;1.00;;;;;;5066061;28;20427;-81
2023/09/19 08:29:30;;;;;;;9.97;2.23;;;28.30;1.00;;;;;;5052934;28;21079;-82
2023/09/19 08:31:59;;;;;;;9.77;2.50;;;28.20;1.00;;;;;;5060823;28;20488;-81
2023/09/19 08:34:24;;;;;;;6.83;2.30;;;27.90;1.00;;;;;;5065603;28;20448;-79
2023/09/19 08:36:57;;;;;;;8.53;2.60;;;28.20;1.00;;;;;;5073604;28;20788;-82
2023/09/19 08:39:23;;;;;;;7.60;3.00;;;28.30;1.00;;;;;;5074470;28;20668;-82
2023/09/19 08:41:49;;;;;;;6.80;2.30;;;28.20;1.00;;;;;;5071063;28;20467;-82
2023/09/19 08:44:15;;;;;;;7.03;2.60;;;28.40;1.00;;;;;;5054888;28;20805;-82
2023/09/19 08:46:43;;;;;;;6.60;2.10;;;28.40;1.00;;;;;;5072226;28;20677;-82
2023/09/19 08:49:24;;;;;;;10.25;2.55;;;28.60;1.00;;;;;;5057275;28;20885;-83
2023/09/19 08:51:58;;;;;;;9.27;2.10;;;28.50;1.00;;;;;;5073015;28;22394;-83
2023/09/19 08:54:35;;;;;;;7.97;2.30;;;28.50;1.00;;;;;;5073938;28;20506;-82
2023/09/19 08:57:07;;;;;;;8.17;2.90;;;28.10;1.00;;;;;;5074653;28;20425;-83
2023/09/19 08:59:35;;;;;;;8.40;2.43;;;28.10;1.00;;;;;;5070528;28;20559;-83
2023/09/19 09:02:00;;;;;;;11.40;2.87;;;28.60;1.00;;;;;;5067902;28;20487;-82
2023/09/19 09:04:26;;;;;;;7.57;2.07;;;29.30;1.00;;;;;;5051998;28;20413;-82
2023/09/19 09:06:54;;;;;;;10.10;3.03;;;30.00;1.00;;;;;;5071464;28;20189;-83
2023/09/19 09:09:20;;;;;;;8.80;1.97;;;30.40;1.00;;;;;;5074147;28;20793;-82
2023/09/19 09:11:48;;;;;;;10.43;2.63;;;30.70;1.00;;;;;;5055358;28;20568;-83
2023/09/19 09:14:14;;;;;;;6.70;2.30;;;30.50;1.00;;;;;;5074296;28;20433;-82
2023/09/19 09:16:42;;;;;;;6.70;2.17;;;30.30;1.00;;;;;;5066614;28;20436;-83
2023/09/19 09:19:08;;;;;;;9.40;2.37;;;30.30;1.00;;;;;;5077192;28;20189;-83
2023/09/19 09:21:36;;;;;;;8.20;2.40;;;30.10;1.00;;;;;;5076501;28;20439;-82
2023/09/19 09:24:28;;;;;;;10.47;2.40;;;31.00;1.00;;;;;;5056596;28;20221;-83
2023/09/19 09:26:54;;;;;;;6.37;1.97;;;31.30;1.00;;;;;;5075674;28;20473;-83
2023/09/19 09:29:43;;;;;;;8.27;2.33;;;31.30;1.00;;;;;;5075138;28;20482;-82
2023/09/19 09:32:24;;;;;;;7.50;2.30;;;31.50;1.00;;;;;;5046770;28;20447;-82
2023/09/19 09:34:58;;;;;;;9.77;2.50;;;31.00;1.00;;;;;;5058410;28;20417;-82
2023/09/19 09:37:31;;;;;;;7.60;2.43;;;31.10;1.00;;;;;;5057543;28;20421;-82
2023/09/19 09:40:19;;;;;;;4.10;2.17;;;31.10;1.00;;;;;;5056446;28;20534;-83
2023/09/19 09:42:52;;;;;;;8.03;2.30;;;31.00;1.00;;;;;;5077994;28;20485;-81
2023/09/19 09:45:36;;;;;;;5.37;1.80;;;30.80;1.00;;;;;;5076468;28;20477;-82
2023/09/19 09:48:15;;;;;;;6.33;1.97;;;31.20;1.00;;;;;;5059887;28;20457;-82
2023/09/19 09:50:56;;;;;;;4.30;2.10;;;31.30;1.00;;;;;;5077501;28;20505;-83
2023/09/19 09:53:29;;;;;;;10.73;3.00;;;31.10;1.00;;;;;;5060017;28;21227;-83
2023/09/19 09:55:59;;;;;;;9.07;2.50;;;31.50;1.00;;;;;;5077274;28;20419;-83
2023/09/19 09:58:29;;;;;;;9.40;2.70;;;31.00;1.00;;;;;;5074104;28;20436;-83
2023/09/19 10:00:59;;;;;;;6.67;1.97;;;31.20;1.00;;;;;;5054437;28;20450;-82
2023/09/19 10:03:39;;;;;;;6.90;2.00;;;31.90;1.00;;;;;;5056728;28;20423;-82
2023/09/19 10:06:25;;;;;;;8.67;2.33;;;32.40;1.00;;;;;;5074127;28;20912;-81
2023/09/19 10:11:45;;;;;;;8.70;2.97;;;31.00;1.00;;;;;;5074776;28;20463;-82
2023/09/19 10:14:12;;;;;;;7.50;2.40;;;30.10;1.00;;;;;;5050262;28;20430;-82
2023/09/19 10:16:46;;;;;;;6.63;2.30;;;29.40;1.00;;;;;;5074414;28;20497;-84
2023/09/19 10:19:22;;;;;;;9.83;2.33;;;28.80;1.00;;;;;;5072148;28;20422;-82
2023/09/19 10:21:49;;;;;;;8.27;2.10;;;28.50;1.00;;;;;;5072012;28;20858;-82
2023/09/19 10:24:24;;;;;;;7.97;2.40;;;28.30;1.00;;;;;;5059004;28;20494;-81
2023/09/19 10:26:51;;;;;;;10.13;2.80;;;28.00;1.00;;;;;;5059229;28;20441;-82
2023/09/19 10:29:18;;;;;;;5.50;2.53;;;27.70;1.00;;;;;;5059069;28;20413;-80
2023/09/19 10:31:47;;;;;;;9.30;2.30;;;27.80;1.00;;;;;;5072842;28;20450;-82
2023/09/19 10:34:15;;;;;;;7.30;2.10;;;27.90;1.00;;;;;;5075293;28;20434;-82
2023/09/19 10:36:45;;;;;;;9.63;2.20;;;27.90;1.00;;;;;;5076136;28;20461;-82
2023/09/19 10:39:13;;;;;;;8.93;2.30;;;27.70;1.00;;;;;;5076163;28;20442;-82
2023/09/19 10:41:57;;;;;;;9.93;2.03;;;27.30;99.90;;;;;;5076786;28;20524;-82
2023/09/19 10:44:28;;;;;;;8.60;2.53;;;27.20;99.90;;;;;;5080826;28;20433;-82
2023/09/19 10:46:54;;;;;;;6.37;2.20;;;27.00;1.00;;;;;;5078296;28;20429;-82
2023/09/19 10:49:21;;;;;;;8.23;1.80;;;27.00;1.00;;;;;;5076493;28;20792;-82
2023/09/19 10:51:49;;;;;;;9.57;2.10;;;26.90;1.00;;;;;;5073791;28;20198;-81
2023/09/19 10:54:18;;;;;;;8.67;2.33;;;27.20;1.00;;;;;;5076314;28;20434;-82
2023/09/19 10:56:50;;;;;;;7.27;2.10;;;27.40;1.00;;;;;;5056901;28;20475;-82
2023/09/19 10:59:20;;;;;;;6.63;2.23;;;28.00;1.00;;;;;;5050998;28;20952;-79
2023/09/19 11:01:57;;;;;;;5.87;2.37;;;28.50;1.00;;;;;;5074986;28;20445;-83
2023/09/19 11:04:29;;;;;;;8.37;2.77;;;29.00;1.00;;;;;;5058159;28;20422;-82
2023/09/19 11:07:15;;;;;;;7.13;2.50;;;29.20;1.00;;;;;;5071340;28;20439;-81
2023/09/19 11:09:53;;;;;;;7.43;2.50;;;29.00;1.00;;;;;;5076253;28;20426;-82
2023/09/19 11:12:40;;;;;;;7.83;2.40;;;29.50;1.00;;;;;;5069792;28;20456;-81
2023/09/19 11:15:13;;;;;;;7.23;2.40;;;29.70;1.00;;;;;;5067618;28;20476;-83
2023/09/19 11:17:46;;;;;;;6.33;2.00;;;29.90;1.00;;;;;;5055350;28;20463;-82
2023/09/19 11:22:49;;;;;;;4.77;1.97;;;31.00;1.00;;;;;;5069832;28;20552;-83
2023/09/19 11:25:30;;;;;;;4.73;1.97;;;31.20;1.00;;;;;;5061414;28;20209;-83
2023/09/19 11:28:08;;;;;;;5.10;1.73;;;31.20;1.00;;;;;;5073630;28;20440;-83
2023/09/19 11:30:45;;;;;;;7.03;2.50;;;31.30;1.00;;;;;;5070265;28;20677;-82
2023/09/19 11:33:25;;;;;;;5.63;2.10;;;31.20;1.00;;;;;;5071769;28;20435;-82
2023/09/19 11:36:08;;;;;;;8.60;2.00;;;31.50;1.00;;;;;;5074957;28;20423;-83
2023/09/19 11:38:43;;;;;;;5.53;1.83;;;31.80;1.00;;;;;;5075949;28;20444;-82
2023/09/19 11:41:21;;;;;;;4.03;1.70;;;32.20;1.00;;;;;;5071661;28;20998;-83
2023/09/19 11:44:09;;;;;;;5.87;2.10;;;32.30;99.90;;;;;;5071600;28;20433;-85
2023/09/19 11:46:52;;;;;;;4.13;2.07;;;32.10;99.90;;;;;;5064098;28;20514;-83
2023/09/19 11:49:23;;;;;;;6.77;2.27;;;32.00;99.90;;;;;;5073004;28;20492;-83
2023/09/19 11:51:51;;;;;;;6.70;2.10;;;32.20;99.90;;;;;;5075501;28;20455;-83
2023/09/19 11:54:21;;;;;;;9.83;1.97;;;32.10;99.90;;;;;;5074855;28;20962;-85
2023/09/19 11:56:50;;;;;;;5.90;1.97;;;32.20;99.90;;;;;;5074139;28;20447;-83
2023/09/19 11:59:22;;;;;;;5.37;2.00;;;32.20;99.90;;;;;;5072023;28;20445;-84
2023/09/19 12:01:57;;;;;;;6.63;2.30;;;32.40;99.90;;;;;;5069853;28;20495;-83
2023/09/19 12:04:45;;;;;;;6.10;2.03;;;32.40;99.90;;;;;;5072575;28;20453;-82
2023/09/19 12:07:16;;;;;;;4.53;1.67;;;32.40;99.90;;;;;;5066156;28;20439;-83
2023/09/19 12:09:44;;;;;;;10.13;2.07;;;32.50;99.90;;;;;;5074071;28;20509;-83
2023/09/19 12:12:16;;;;;;;5.60;2.00;;;32.40;99.90;;;;;;5073793;28;21084;-82
2023/09/19 12:14:48;;;;;;;10.43;2.13;;;32.70;99.90;;;;;;5070349;28;20485;-83
2023/09/19 12:17:13;;;;;;;7.03;2.07;;;32.80;99.90;;;;;;5070105;28;20446;-82
2023/09/19 12:19:49;;;;;;;4.77;1.60;;;32.70;99.90;;;;;;5071124;28;20431;-82
2023/09/19 12:22:14;;;;;;;3.33;1.93;;;32.70;99.90;;;;;;5071268;28;20285;-82
2023/09/19 12:24:42;;;;;;;4.57;1.73;;;32.60;99.90;;;;;;5071749;28;20509;-82
2023/09/19 12:27:09;;;;;;;4.30;1.37;;;32.30;99.90;;;;;;5061600;28;20185;-81
2023/09/19 12:29:49;;;;;;;5.70;1.90;;;32.20;99.90;;;;;;5067076;28;20432;-82
2023/09/19 12:32:21;;;;;;;5.33;1.90;;;32.40;99.90;;;;;;5070564;28;20544;-83
2023/09/19 12:34:54;;;;;;;7.10;1.80;;;32.70;99.90;;;;;;5057478;28;20478;-82
2023/09/19 12:37:22;;;;;;;2.23;1.10;;;32.90;99.90;;;;;;5053718;28;20517;-82
2023/09/19 12:39:55;;;;;;;4.13;1.50;;;32.80;99.90;;;;;;5070979;28;20444;-82
2023/09/19 12:42:23;;;;;;;3.00;1.33;;;32.70;99.90;;;;;;5068462;28;20451;-82
2023/09/19 12:44:55;;;;;;;3.90;1.30;;;32.50;99.90;;;;;;5072974;28;20466;-81
2023/09/19 12:47:22;;;;;;;4.70;1.50;;;32.30;99.90;;;;;;5051397;28;20452;-81
2023/09/19 12:50:13;;;;;;;5.33;2.10;;;31.70;99.90;;;;;;5075741;28;20430;-80
2023/09/19 12:52:42;;;;;;;5.47;1.50;;;30.90;99.90;;;;;;5070159;28;20817;-80
2023/09/19 12:55:18;;;;;;;6.97;1.90;;;30.40;99.90;;;;;;5075049;28;20469;-80
2023/09/19 12:57:54;;;;;;;4.13;1.23;;;29.80;99.90;;;;;;5075388;28;20469;-81
2023/09/19 13:00:23;;;;;;;4.83;1.40;;;29.30;99.90;;;;;;5077834;28;20432;-81
2023/09/19 13:03:21;;;;;;;3.83;1.40;;;29.20;99.90;;;;;;5060519;28;20573;-82
2023/09/19 13:05:55;;;;;;;4.27;1.30;;;29.30;99.90;;;;;;5073825;28;20997;-82
2023/09/19 13:08:26;;;;;;;5.27;1.50;;;29.00;99.90;;;;;;5074380;28;20512;-82